Airfield :
LOGIN :

Register | Disclaimer

   EN    FR    IT 

 










Legend :    VFR   Marginal VFR   IFR   Intensive IFR   Very Intensive IFR
Visi :
Ceiling :
>= 8 km
>= 3000ft
5 to 8 km
1000 to 3000 ft
1500m to 5 km
500 to 1000 ft
800 to 1500m
200 to 500 ft
< 800m
< 200 ft
Symbols :   Thunderstorms  Fog  Heavy snow  Heavy precipitations  Wind > 20 kt
SIGMETs :     Misc.  Thunderstorms  Icing  Turbulence  Mountain Waves  Volcanic Ashes






- Airport Elevation : 424 ft
- IATA code : QGY


LHPR - Györ Per

CURRENT METAR :
  • 231745Z AUTO 04005KT CAVOK 21/14 Q1014

EXPIRED METARs :
  • 231715Z AUTO 02005KT 350V050 CAVOK 23/12 Q1014
  • 231645Z AUTO 01004KT 340V070 CAVOK 23/13 Q1014 NOSIG
  • 231615Z AUTO 32004KT 280V020 CAVOK 23/12 Q1014 NOSIG
  • 231545Z AUTO 31003KT 240V020 CAVOK 24/13 Q1014 NOSIG
  • 231515Z AUTO 34004KT 270V050 9999 FEW033 24/13 Q1014 NOSIG
  • 231445Z AUTO VRB03KT CAVOK 23/12 Q1014 NOSIG
  • 231415Z AUTO 34005KT 290V050 9999 FEW046 24/12 Q1014 NOSIG
  • 231345Z AUTO 32004KT 250V050 CAVOK 24/12 Q1014 NOSIG
  • 231315Z AUTO VRB05KT 9999 SCT046 23/14 Q1014 NOSIG

TAF TAF LHPR
Valid from the 23 at 18:00 until the 24 at 03:00 UTC


231715Z 2318/2403 VRB03KT CAVOK
TEMPO 2400/2403 4000 BR NSC
PROB30
TEMPO 2400/2403 SHRA -TSRA SCT010 SCT020CB BKN030



MET'MAP, your aeronautical weather chart ! - Copyright ORBIFLY December 2007 - Disclaimer

ORBIFLY MET'MAP TEAM :

Programming & Development : Alexandra Zaïnal
Original concept : Baudouin d'Aumeries
Technical & hardware support : Manuel Goepfert
Assistance : Marc-Olivier Méhu




SOURCES & CREDITS :

   NOAA